createdAt,value
2024-05-09T00:00:29.734Z,1024.59
2024-05-09T00:00:58.017Z,1024.61
2024-05-09T00:01:35.163Z,1024.59
2024-05-09T00:02:12.207Z,1024.59
2024-05-09T00:02:49.196Z,1024.6
2024-05-09T00:03:26.267Z,1024.54
2024-05-09T00:04:03.386Z,1024.59
2024-05-09T00:04:40.392Z,1024.54
2024-05-09T00:05:17.546Z,1024.56
2024-05-09T00:05:54.551Z,1024.54
2024-05-09T00:06:31.525Z,1024.53
2024-05-09T00:07:09.029Z,1024.57
2024-05-09T00:07:45.700Z,1024.52
2024-05-09T00:08:22.782Z,1024.52
2024-05-09T00:08:59.791Z,1024.55
2024-05-09T00:10:22.421Z,1024.55
2024-05-09T00:10:51.183Z,1024.55
2024-05-09T00:11:28.114Z,1024.55
2024-05-09T00:12:05.332Z,1024.59
2024-05-09T00:12:42.110Z,1024.57
2024-05-09T00:13:19.232Z,1024.57
2024-05-09T00:13:56.376Z,1024.55
2024-05-09T00:14:33.366Z,1024.56
2024-05-09T00:15:10.399Z,1024.56
2024-05-09T00:15:47.449Z,1024.56
2024-05-09T00:16:24.491Z,1024.56
2024-05-09T00:17:34.663Z,1024.57
2024-05-09T00:18:11.883Z,1024.6
2024-05-09T00:18:48.768Z,1024.55
2024-05-09T00:19:25.861Z,1024.56
2024-05-09T00:20:05.215Z,1024.55
2024-05-09T00:20:41.259Z,1024.54
2024-05-09T00:21:16.964Z,1024.52
2024-05-09T00:21:53.936Z,1024.52
2024-05-09T00:22:31.028Z,1024.56
2024-05-09T00:23:08.643Z,1024.48
2024-05-09T00:23:45.180Z,1024.5
2024-05-09T00:24:22.198Z,1024.48
2024-05-09T00:24:59.239Z,1024.48
2024-05-09T00:25:36.370Z,1024.51
2024-05-09T00:26:13.448Z,1024.52
2024-05-09T00:26:50.452Z,1024.54
2024-05-09T00:27:27.486Z,1024.53
2024-05-09T00:28:04.584Z,1024.55
2024-05-09T00:28:41.642Z,1024.62
2024-05-09T00:29:18.934Z,1024.6
2024-05-09T00:29:55.752Z,1024.58
2024-05-09T00:30:35.499Z,1024.59
2024-05-09T00:31:09.983Z,1024.6
2024-05-09T00:31:46.963Z,1024.6
2024-05-09T00:32:24.088Z,1024.6
2024-05-09T00:33:01.349Z,1024.6
2024-05-09T00:33:38.220Z,1024.57
2024-05-09T00:34:15.266Z,1024.59
2024-05-09T00:34:52.243Z,1024.56
2024-05-09T00:35:29.451Z,1024.52
2024-05-09T00:36:06.362Z,1024.54
2024-05-09T00:36:43.396Z,1024.57
2024-05-09T00:37:20.823Z,1024.55
2024-05-09T00:37:57.567Z,1024.57
2024-05-09T00:38:34.614Z,1024.58
2024-05-09T00:39:11.622Z,1024.57
2024-05-09T00:39:48.726Z,1024.57
2024-05-09T00:40:35.363Z,1024.52
2024-05-09T00:41:02.896Z,1024.55
2024-05-09T00:41:39.934Z,1024.53
2024-05-09T00:42:16.931Z,1024.53
2024-05-09T00:42:54.031Z,1024.51
2024-05-09T00:43:31.085Z,1024.51
2024-05-09T00:44:08.196Z,1024.51
2024-05-09T00:44:45.197Z,1024.49
2024-05-09T00:45:22.251Z,1024.47
2024-05-09T00:45:59.301Z,1024.48
2024-05-09T00:46:36.363Z,1024.48
2024-05-09T00:47:13.634Z,1024.46
2024-05-09T00:47:50.670Z,1024.47
2024-05-09T00:48:27.735Z,1024.48
2024-05-09T00:49:04.694Z,1024.45
2024-05-09T00:49:41.764Z,1024.48
2024-05-09T00:50:23.049Z,1024.47
2024-05-09T00:50:55.890Z,1024.44
2024-05-09T00:51:32.884Z,1024.46
2024-05-09T00:52:09.917Z,1024.45
2024-05-09T00:52:47.039Z,1024.46
2024-05-09T00:53:24.083Z,1024.47
2024-05-09T00:54:01.089Z,1024.41
2024-05-09T00:54:38.139Z,1024.42
2024-05-09T00:55:15.241Z,1024.42
2024-05-09T00:55:52.304Z,1024.4
2024-05-09T00:56:29.441Z,1024.37
2024-05-09T00:57:06.472Z,1024.44
2024-05-09T00:57:43.460Z,1024.43
2024-05-09T00:58:20.513Z,1024.46
2024-05-09T00:58:57.612Z,1024.43
2024-05-09T00:59:34.654Z,1024.43
2024-05-09T01:00:22.516Z,1024.47
2024-05-09T01:00:48.857Z,1024.48
2024-05-09T01:01:25.878Z,1024.46
2024-05-09T01:02:02.973Z,1024.45
2024-05-09T01:02:40.021Z,1024.5
2024-05-09T01:03:17.262Z,1024.53
2024-05-09T01:03:54.225Z,1024.47
2024-05-09T01:04:31.178Z,1024.48
2024-05-09T01:05:08.327Z,1024.51
2024-05-09T01:05:45.306Z,1024.52
2024-05-09T01:06:22.509Z,1024.51
2024-05-09T01:06:59.383Z,1024.53
2024-05-09T01:07:36.420Z,1024.5
2024-05-09T01:08:13.678Z,1024.53
2024-05-09T01:08:50.562Z,1024.54
2024-05-09T01:09:27.597Z,1024.5
2024-05-09T01:10:09.073Z,1024.54
2024-05-09T01:10:44.282Z,1024.54
2024-05-09T01:11:18.944Z,1024.53
2024-05-09T01:11:55.938Z,1024.55
2024-05-09T01:12:32.971Z,1024.53
2024-05-09T01:13:10.041Z,1024.51
2024-05-09T01:13:47.054Z,1024.49
2024-05-09T01:14:24.129Z,1024.52
2024-05-09T01:15:01.153Z,1024.53
2024-05-09T01:15:38.214Z,1024.5
2024-05-09T01:16:15.294Z,1024.53
2024-05-09T01:16:52.442Z,1024.57
2024-05-09T01:17:29.628Z,1024.53
2024-05-09T01:18:06.787Z,1024.53
2024-05-09T01:18:43.638Z,1024.58
2024-05-09T01:19:20.648Z,1024.53
2024-05-09T01:19:57.702Z,1024.53
2024-05-09T01:20:41.336Z,1024.53
2024-05-09T01:21:11.831Z,1024.54
2024-05-09T01:21:48.876Z,1024.49
2024-05-09T01:22:25.868Z,1024.52
2024-05-09T01:23:02.988Z,1024.53
2024-05-09T01:23:40.041Z,1024.52
2024-05-09T01:24:17.055Z,1024.49
2024-05-09T01:24:54.104Z,1024.51
2024-05-09T01:25:31.181Z,1024.45
2024-05-09T01:26:08.263Z,1024.48
2024-05-09T01:26:45.324Z,1024.46
2024-05-09T01:27:22.385Z,1024.51
2024-05-09T01:27:59.343Z,1024.47
2024-05-09T01:28:36.494Z,1024.48
2024-05-09T01:29:14.115Z,1024.51
2024-05-09T01:29:50.583Z,1024.49
2024-05-09T01:30:34.103Z,1024.52
2024-05-09T01:31:04.738Z,1024.51
2024-05-09T01:31:41.876Z,1024.55
2024-05-09T01:32:18.994Z,1024.53
2024-05-09T01:32:56.203Z,1024.54
2024-05-09T01:33:33.490Z,1024.51
2024-05-09T01:34:10.119Z,1024.51
2024-05-09T01:34:47.087Z,1024.52
2024-05-09T01:35:24.375Z,1024.5
2024-05-09T01:36:01.212Z,1024.52
2024-05-09T01:36:38.241Z,1024.55
2024-05-09T01:37:15.332Z,1024.49
2024-05-09T01:37:52.418Z,1024.48
2024-05-09T01:38:29.610Z,1024.47
2024-05-09T01:39:06.526Z,1024.48
2024-05-09T01:39:43.617Z,1024.5
2024-05-09T01:40:28.552Z,1024.51
2024-05-09T01:40:57.732Z,1024.5
2024-05-09T01:41:34.810Z,1024.53
2024-05-09T01:42:11.806Z,1024.51
2024-05-09T01:42:48.854Z,1024.52
2024-05-09T01:43:25.843Z,1024.52
2024-05-09T01:44:03.041Z,1024.48
2024-05-09T01:44:40.031Z,1024.51
2024-05-09T01:45:17.156Z,1024.49
2024-05-09T01:45:54.169Z,1024.52
2024-05-09T01:46:31.222Z,1024.48
2024-05-09T01:47:08.452Z,1024.49
2024-05-09T01:47:45.591Z,1024.49
2024-05-09T01:48:22.579Z,1024.52
2024-05-09T01:48:59.851Z,1024.51
2024-05-09T01:49:36.725Z,1024.48
2024-05-09T01:50:50.720Z,1024.47
2024-05-09T01:51:27.735Z,1024.49
2024-05-09T01:52:04.775Z,1024.49
2024-05-09T01:52:41.823Z,1024.47
2024-05-09T01:53:18.891Z,1024.48
2024-05-09T01:53:55.975Z,1024.46
2024-05-09T01:54:33.013Z,1024.5
2024-05-09T01:55:10.070Z,1024.49
2024-05-09T01:55:47.193Z,1024.48
2024-05-09T01:56:24.279Z,1024.49
2024-05-09T01:57:01.286Z,1024.5
2024-05-09T01:57:38.311Z,1024.49
2024-05-09T01:58:15.840Z,1024.5
2024-05-09T01:58:52.509Z,1024.51
2024-05-09T01:59:29.575Z,1024.51
2024-05-09T02:00:07.886Z,1024.5
2024-05-09T02:00:43.906Z,1024.5
2024-05-09T02:01:20.711Z,1024.44
2024-05-09T02:01:58.113Z,1024.45
2024-05-09T02:02:34.876Z,1024.45
2024-05-09T02:03:15.070Z,1024.46
2024-05-09T02:03:49.244Z,1024.46
2024-05-09T02:04:26.156Z,1024.45
2024-05-09T02:05:03.313Z,1024.43
2024-05-09T02:05:40.240Z,1024.48
2024-05-09T02:06:17.259Z,1024.5
2024-05-09T02:06:54.218Z,1024.48
2024-05-09T02:07:31.277Z,1024.47
2024-05-09T02:08:08.395Z,1024.48
2024-05-09T02:08:45.396Z,1024.49
2024-05-09T02:09:22.478Z,1024.46
2024-05-09T02:09:59.537Z,1024.45
2024-05-09T02:10:36.579Z,1024.44
2024-05-09T02:11:13.790Z,1024.4
2024-05-09T02:11:50.783Z,1024.43
2024-05-09T02:12:27.838Z,1024.43
2024-05-09T02:13:04.860Z,1024.43
2024-05-09T02:13:41.926Z,1024.45
2024-05-09T02:14:19.090Z,1024.45
2024-05-09T02:14:55.990Z,1024.45
2024-05-09T02:15:33.080Z,1024.42
2024-05-09T02:16:10.134Z,1024.47
2024-05-09T02:16:47.226Z,1024.42
2024-05-09T02:17:24.403Z,1024.49
2024-05-09T02:18:01.539Z,1024.44
2024-05-09T02:18:38.357Z,1024.46
2024-05-09T02:19:15.522Z,1024.45
2024-05-09T02:19:52.530Z,1024.44
2024-05-09T02:20:34.191Z,1024.46
2024-05-09T02:21:39.626Z,1024.39
2024-05-09T02:22:16.737Z,1024.4
2024-05-09T02:22:53.716Z,1024.42
2024-05-09T02:23:30.979Z,1024.41
2024-05-09T02:24:07.742Z,1024.46
2024-05-09T02:24:44.935Z,1024.45
2024-05-09T02:25:21.954Z,1024.52
2024-05-09T02:25:59.006Z,1024.5
2024-05-09T02:26:36.070Z,1024.54
2024-05-09T02:27:13.142Z,1024.56
2024-05-09T02:27:50.183Z,1024.53
2024-05-09T02:28:27.529Z,1024.52
2024-05-09T02:29:04.345Z,1024.5
2024-05-09T02:29:41.375Z,1024.52
2024-05-09T02:30:26.010Z,1024.52
2024-05-09T02:30:55.491Z,1024.49
2024-05-09T02:31:32.533Z,1024.54
2024-05-09T02:32:09.689Z,1024.49
2024-05-09T02:32:46.860Z,1024.48
2024-05-09T02:33:24.040Z,1024.47
2024-05-09T02:34:01.184Z,1024.47
2024-05-09T02:34:37.896Z,1024.5
2024-05-09T02:35:14.944Z,1024.5
2024-05-09T02:35:52.030Z,1024.48
2024-05-09T02:36:29.050Z,1024.44
2024-05-09T02:37:06.131Z,1024.45
2024-05-09T02:37:43.220Z,1024.42
2024-05-09T02:38:20.256Z,1024.46
2024-05-09T02:38:57.282Z,1024.44
2024-05-09T02:39:34.327Z,1024.43
2024-05-09T02:40:14.843Z,1024.43
2024-05-09T02:40:48.494Z,1024.41
2024-05-09T02:41:25.597Z,1024.42
2024-05-09T02:42:02.613Z,1024.44
2024-05-09T02:42:39.633Z,1024.4
2024-05-09T02:43:16.693Z,1024.39
2024-05-09T02:43:53.843Z,1024.42
2024-05-09T02:44:30.890Z,1024.4
2024-05-09T02:45:07.906Z,1024.36
2024-05-09T02:45:44.940Z,1024.38
2024-05-09T02:46:22.030Z,1024.39
2024-05-09T02:46:59.109Z,1024.38
2024-05-09T02:47:36.223Z,1024.42
2024-05-09T02:48:14.106Z,1024.42
2024-05-09T02:48:50.340Z,1024.4
2024-05-09T02:49:27.284Z,1024.41
2024-05-09T02:50:06.129Z,1024.41
2024-05-09T02:50:41.891Z,1024.42
2024-05-09T02:51:19.214Z,1024.4
2024-05-09T02:51:55.542Z,1024.38
2024-05-09T02:52:32.606Z,1024.36
2024-05-09T02:53:10.204Z,1024.41
2024-05-09T02:53:46.799Z,1024.41
2024-05-09T02:54:23.778Z,1024.36
2024-05-09T02:55:00.863Z,1024.37
2024-05-09T02:55:38.012Z,1024.37
2024-05-09T02:56:14.997Z,1024.38
2024-05-09T02:56:52.030Z,1024.34
2024-05-09T02:57:29.363Z,1024.35
2024-05-09T02:58:06.159Z,1024.34
2024-05-09T02:58:43.259Z,1024.34
2024-05-09T02:59:20.349Z,1024.34
2024-05-09T02:59:57.366Z,1024.37
2024-05-09T03:00:39.179Z,1024.38
2024-05-09T03:01:11.576Z,1024.38
2024-05-09T03:01:48.680Z,1024.4
2024-05-09T03:02:25.668Z,1024.4
2024-05-09T03:03:02.785Z,1024.39
2024-05-09T03:03:40.011Z,1024.38
2024-05-09T03:04:16.836Z,1024.39
2024-05-09T03:04:53.847Z,1024.42
2024-05-09T03:05:31.122Z,1024.41
2024-05-09T03:06:45.043Z,1024.43
2024-05-09T03:07:22.057Z,1024.38
2024-05-09T03:07:59.134Z,1024.41
2024-05-09T03:08:36.261Z,1024.48
2024-05-09T03:09:13.218Z,1024.47
2024-05-09T03:09:50.331Z,1024.42
2024-05-09T03:10:29.181Z,1024.45
2024-05-09T03:11:04.500Z,1024.45
2024-05-09T03:11:41.536Z,1024.46
2024-05-09T03:12:18.566Z,1024.49
2024-05-09T03:12:55.614Z,1024.47
2024-05-09T03:13:32.663Z,1024.48
2024-05-09T03:14:09.751Z,1024.46
2024-05-09T03:15:23.850Z,1024.47
2024-05-09T03:16:00.897Z,1024.47
2024-05-09T03:16:37.982Z,1024.44
2024-05-09T03:17:15.084Z,1024.45
2024-05-09T03:17:52.337Z,1024.44
2024-05-09T03:18:29.216Z,1024.45
2024-05-09T03:19:06.305Z,1024.43
2024-05-09T03:19:43.339Z,1024.43
2024-05-09T03:20:24.064Z,1024.41
2024-05-09T03:20:57.389Z,1024.42
2024-05-09T03:21:34.467Z,1024.44
2024-05-09T03:22:11.526Z,1024.46
2024-05-09T03:22:48.620Z,1024.4
2024-05-09T03:23:25.792Z,1024.42
2024-05-09T03:24:02.688Z,1024.48
2024-05-09T03:24:39.741Z,1024.41
2024-05-09T03:25:16.816Z,1024.48
2024-05-09T03:25:53.885Z,1024.47
2024-05-09T03:26:30.983Z,1024.43
2024-05-09T03:27:08.012Z,1024.45
2024-05-09T03:27:45.041Z,1024.47
2024-05-09T03:28:22.113Z,1024.44
2024-05-09T03:28:59.751Z,1024.42
2024-05-09T03:29:36.241Z,1024.44
2024-05-09T03:30:25.632Z,1024.46
2024-05-09T03:30:50.364Z,1024.46
2024-05-09T03:31:27.411Z,1024.48
2024-05-09T03:32:04.670Z,1024.46
2024-05-09T03:32:41.636Z,1024.5
2024-05-09T03:33:20.138Z,1024.52
2024-05-09T03:33:55.877Z,1024.5
2024-05-09T03:34:32.769Z,1024.46
2024-05-09T03:35:09.794Z,1024.54
2024-05-09T03:35:47.331Z,1024.51
2024-05-09T03:36:23.897Z,1024.49
2024-05-09T03:37:00.945Z,1024.48
2024-05-09T03:37:38.038Z,1024.46
2024-05-09T03:38:15.350Z,1024.49
2024-05-09T03:38:52.143Z,1024.48
2024-05-09T03:39:29.192Z,1024.45
2024-05-09T03:40:09.342Z,1024.44
2024-05-09T03:40:43.347Z,1024.5
2024-05-09T03:41:20.435Z,1024.43
2024-05-09T03:41:57.453Z,1024.45
2024-05-09T03:42:34.538Z,1024.49
2024-05-09T03:43:11.576Z,1024.49
2024-05-09T03:43:48.648Z,1024.47
2024-05-09T03:44:25.863Z,1024.48
2024-05-09T03:45:02.757Z,1024.47
2024-05-09T03:45:39.807Z,1024.55
2024-05-09T03:46:16.849Z,1024.49
2024-05-09T03:46:54.050Z,1024.48
2024-05-09T03:47:31.133Z,1024.49
2024-05-09T03:48:08.362Z,1024.5
2024-05-09T03:48:45.341Z,1024.53
2024-05-09T03:49:22.474Z,1024.52
2024-05-09T03:49:59.277Z,1024.52
2024-05-09T03:50:37.143Z,1024.5
2024-05-09T03:51:13.449Z,1024.51
2024-05-09T03:51:50.440Z,1024.54
2024-05-09T03:52:27.463Z,1024.51
2024-05-09T03:53:04.672Z,1024.5
2024-05-09T03:53:41.732Z,1024.47
2024-05-09T03:54:18.643Z,1024.49
2024-05-09T03:54:55.698Z,1024.48
2024-05-09T03:55:32.686Z,1024.53
2024-05-09T03:56:09.910Z,1024.51
2024-05-09T03:56:46.976Z,1024.55
2024-05-09T03:57:23.990Z,1024.55
2024-05-09T03:58:01.029Z,1024.55
2024-05-09T03:58:38.058Z,1024.52
2024-05-09T03:59:15.275Z,1024.55
2024-05-09T03:59:52.175Z,1024.53
2024-05-09T04:00:36.912Z,1024.53
2024-05-09T04:01:06.409Z,1024.49
2024-05-09T04:01:43.470Z,1024.55
2024-05-09T04:02:20.553Z,1024.51
2024-05-09T04:02:57.576Z,1024.48
2024-05-09T04:03:34.690Z,1024.49
2024-05-09T04:04:11.692Z,1024.5
2024-05-09T04:04:48.793Z,1024.44
2024-05-09T04:05:25.786Z,1024.46
2024-05-09T04:06:02.798Z,1024.5
2024-05-09T04:06:39.842Z,1024.51
2024-05-09T04:07:16.957Z,1024.47
2024-05-09T04:07:54.025Z,1024.51
2024-05-09T04:08:31.170Z,1024.5
2024-05-09T04:09:08.121Z,1024.48
2024-05-09T04:09:45.178Z,1024.53
2024-05-09T04:10:30.236Z,1024.5
2024-05-09T04:10:59.310Z,1024.53
2024-05-09T04:11:36.433Z,1024.5
2024-05-09T04:12:13.464Z,1024.52
2024-05-09T04:12:50.461Z,1024.56
2024-05-09T04:13:27.550Z,1024.52
2024-05-09T04:14:04.715Z,1024.5
2024-05-09T04:14:41.724Z,1024.52
2024-05-09T04:15:18.730Z,1024.51
2024-05-09T04:15:55.806Z,1024.5
2024-05-09T04:16:32.808Z,1024.5
2024-05-09T04:17:09.925Z,1024.54
2024-05-09T04:17:47.148Z,1024.53
2024-05-09T04:18:24.224Z,1024.54
2024-05-09T04:19:01.144Z,1024.54
2024-05-09T04:19:38.191Z,1024.55
2024-05-09T04:20:52.278Z,1024.63
2024-05-09T04:21:29.323Z,1024.56
2024-05-09T04:22:06.344Z,1024.6
2024-05-09T04:22:43.438Z,1024.58
2024-05-09T04:23:20.521Z,1024.61
2024-05-09T04:23:57.593Z,1024.6
2024-05-09T04:24:34.956Z,1024.6
2024-05-09T04:25:45.433Z,1024.62
2024-05-09T04:26:21.801Z,1024.59
2024-05-09T04:26:58.806Z,1024.61
2024-05-09T04:27:35.829Z,1024.62
2024-05-09T04:28:12.888Z,1024.63
2024-05-09T04:28:49.987Z,1024.63
2024-05-09T04:29:27.084Z,1024.67
2024-05-09T04:30:06.085Z,1024.67
2024-05-09T04:30:42.123Z,1024.63
2024-05-09T04:31:18.179Z,1024.62
2024-05-09T04:31:55.391Z,1024.65
2024-05-09T04:32:32.450Z,1024.62
2024-05-09T04:33:11.550Z,1024.6
2024-05-09T04:33:46.805Z,1024.59
2024-05-09T04:34:23.566Z,1024.63
2024-05-09T04:35:00.605Z,1024.62
2024-05-09T04:35:37.697Z,1024.66
2024-05-09T04:36:14.644Z,1024.64
2024-05-09T04:36:51.706Z,1024.65
2024-05-09T04:37:28.704Z,1024.65
2024-05-09T04:38:06.295Z,1024.62
2024-05-09T04:38:42.980Z,1024.63
2024-05-09T04:39:19.985Z,1024.65
2024-05-09T04:39:57.026Z,1024.65
2024-05-09T04:40:36.483Z,1024.63
2024-05-09T04:41:11.165Z,1024.67
2024-05-09T04:41:48.217Z,1024.62
2024-05-09T04:42:25.280Z,1024.65
2024-05-09T04:43:02.370Z,1024.68
2024-05-09T04:43:39.406Z,1024.68
2024-05-09T04:44:16.582Z,1024.68
2024-05-09T04:44:55.591Z,1024.69
2024-05-09T04:45:30.703Z,1024.68
2024-05-09T04:46:07.663Z,1024.71
2024-05-09T04:46:44.741Z,1024.67
2024-05-09T04:47:21.890Z,1024.68
2024-05-09T04:47:59.181Z,1024.66
2024-05-09T04:48:36.592Z,1024.67
2024-05-09T04:49:13.173Z,1024.64
2024-05-09T04:49:50.064Z,1024.66
2024-05-09T04:50:35.585Z,1024.64
2024-05-09T04:51:04.257Z,1024.65
2024-05-09T04:51:41.197Z,1024.69
2024-05-09T04:52:18.243Z,1024.7
2024-05-09T04:52:55.319Z,1024.67
2024-05-09T04:53:32.387Z,1024.68
2024-05-09T04:54:15.666Z,1024.65
2024-05-09T04:54:46.498Z,1024.66
2024-05-09T04:55:23.559Z,1024.67
2024-05-09T04:56:00.707Z,1024.71
2024-05-09T04:56:37.698Z,1024.68
2024-05-09T04:57:14.706Z,1024.71
2024-05-09T04:57:51.778Z,1024.73
2024-05-09T04:58:28.754Z,1024.73
2024-05-09T04:59:05.990Z,1024.72
2024-05-09T04:59:42.964Z,1024.71
2024-05-09T05:00:28.470Z,1024.71
2024-05-09T05:00:57.115Z,1024.71
2024-05-09T05:01:34.164Z,1024.72
2024-05-09T05:02:11.263Z,1024.69
2024-05-09T05:02:48.329Z,1024.75
2024-05-09T05:03:25.472Z,1024.74
2024-05-09T05:04:02.541Z,1024.73
2024-05-09T05:04:39.510Z,1024.74
2024-05-09T05:05:16.785Z,1024.75
2024-05-09T05:05:53.638Z,1024.75
2024-05-09T05:06:30.637Z,1024.72
2024-05-09T05:07:07.679Z,1024.7
2024-05-09T05:07:44.782Z,1024.7
2024-05-09T05:08:21.801Z,1024.73
2024-05-09T05:08:58.885Z,1024.71
2024-05-09T05:09:35.935Z,1024.7
2024-05-09T05:10:17.925Z,1024.73
2024-05-09T05:10:50.344Z,1024.71
2024-05-09T05:11:27.236Z,1024.71
2024-05-09T05:12:04.347Z,1024.73
2024-05-09T05:12:41.235Z,1024.68
2024-05-09T05:13:19.284Z,1024.7
2024-05-09T05:13:55.392Z,1024.68
2024-05-09T05:14:32.504Z,1024.68
2024-05-09T05:15:09.485Z,1024.67
2024-05-09T05:15:46.567Z,1024.71
2024-05-09T05:16:23.624Z,1024.65
2024-05-09T05:17:00.788Z,1024.68
2024-05-09T05:17:38.525Z,1024.7
2024-05-09T05:18:14.884Z,1024.72
2024-05-09T05:18:52.009Z,1024.71
2024-05-09T05:19:29.120Z,1024.69
2024-05-09T05:20:08.520Z,1024.7
2024-05-09T05:20:43.175Z,1024.73
2024-05-09T05:21:20.199Z,1024.74
2024-05-09T05:21:57.133Z,1024.68
2024-05-09T05:22:34.178Z,1024.74
2024-05-09T05:23:11.332Z,1024.76
2024-05-09T05:23:48.266Z,1024.74
2024-05-09T05:24:25.401Z,1024.73
2024-05-09T05:25:02.444Z,1024.74
2024-05-09T05:25:39.539Z,1024.77
2024-05-09T05:26:16.611Z,1024.77
2024-05-09T05:26:53.619Z,1024.75
2024-05-09T05:27:30.684Z,1024.76
2024-05-09T05:28:07.762Z,1024.75
2024-05-09T05:29:21.950Z,1024.82
2024-05-09T05:29:58.951Z,1024.74
2024-05-09T05:30:36.015Z,1024.73
2024-05-09T05:31:13.104Z,1024.77
2024-05-09T05:31:50.225Z,1024.79
2024-05-09T05:32:27.285Z,1024.72
2024-05-09T05:33:04.302Z,1024.7
2024-05-09T05:33:41.316Z,1024.74
2024-05-09T05:34:18.351Z,1024.75
2024-05-09T05:34:55.458Z,1024.76
2024-05-09T05:35:32.821Z,1024.73
2024-05-09T05:36:09.523Z,1024.72
2024-05-09T05:36:46.595Z,1024.75
2024-05-09T05:37:23.640Z,1024.76
2024-05-09T05:38:00.750Z,1024.73
2024-05-09T05:38:37.879Z,1024.75
2024-05-09T05:39:14.863Z,1024.8
2024-05-09T05:39:51.927Z,1024.74
2024-05-09T05:40:36.056Z,1024.74
2024-05-09T05:41:06.054Z,1024.75
2024-05-09T05:41:43.173Z,1024.76
2024-05-09T05:42:20.173Z,1024.75
2024-05-09T05:42:57.218Z,1024.7
2024-05-09T05:43:34.260Z,1024.71
2024-05-09T05:44:11.370Z,1024.73
2024-05-09T05:44:48.357Z,1024.74
2024-05-09T05:45:25.498Z,1024.68
2024-05-09T05:46:02.509Z,1024.74
2024-05-09T05:46:39.917Z,1024.74
2024-05-09T05:47:16.716Z,1024.72
2024-05-09T05:47:53.805Z,1024.73
2024-05-09T05:48:30.797Z,1024.73
2024-05-09T05:49:07.839Z,1024.76
2024-05-09T05:49:44.913Z,1024.77
2024-05-09T05:50:27.831Z,1024.75
2024-05-09T05:51:01.165Z,1024.77
2024-05-09T05:51:36.057Z,1024.74
2024-05-09T05:52:13.088Z,1024.8
2024-05-09T05:52:50.172Z,1024.75
2024-05-09T05:53:27.265Z,1024.77
2024-05-09T05:54:04.302Z,1024.73
2024-05-09T05:54:41.357Z,1024.75
2024-05-09T05:55:18.403Z,1024.78
2024-05-09T05:55:55.456Z,1024.74
2024-05-09T05:56:32.609Z,1024.69
2024-05-09T05:57:09.577Z,1024.74
2024-05-09T05:57:46.681Z,1024.71
2024-05-09T05:58:23.739Z,1024.71
2024-05-09T05:59:00.788Z,1024.71
2024-05-09T05:59:37.945Z,1024.67
2024-05-09T06:00:21.653Z,1024.72
2024-05-09T06:00:52.040Z,1024.68
2024-05-09T06:01:29.123Z,1024.7
2024-05-09T06:02:06.251Z,1024.76
2024-05-09T06:02:43.354Z,1024.7
2024-05-09T06:03:20.275Z,1024.71
2024-05-09T06:03:57.366Z,1024.71
2024-05-09T06:04:34.393Z,1024.71
2024-05-09T06:05:11.456Z,1024.64
2024-05-09T06:05:48.658Z,1024.7
2024-05-09T06:06:25.468Z,1024.72
2024-05-09T06:07:02.576Z,1024.7
2024-05-09T06:07:39.601Z,1024.69
2024-05-09T06:08:16.750Z,1024.66
2024-05-09T06:08:53.737Z,1024.68
2024-05-09T06:09:30.891Z,1024.72
2024-05-09T06:10:16.946Z,1024.71
2024-05-09T06:10:45.149Z,1024.7
2024-05-09T06:11:22.125Z,1024.73
2024-05-09T06:11:59.284Z,1024.71
2024-05-09T06:12:36.084Z,1024.74
2024-05-09T06:13:13.999Z,1024.7
2024-05-09T06:13:50.257Z,1024.71
2024-05-09T06:14:27.272Z,1024.69
2024-05-09T06:15:04.366Z,1024.7
2024-05-09T06:15:41.811Z,1024.7
2024-05-09T06:16:18.490Z,1024.69
2024-05-09T06:16:58.065Z,1024.71
2024-05-09T06:17:32.693Z,1024.73
2024-05-09T06:18:10.863Z,1024.71
2024-05-09T06:18:46.981Z,1024.72
2024-05-09T06:19:24.073Z,1024.72
2024-05-09T06:20:00.797Z,1024.73
2024-05-09T06:20:38.579Z,1024.7
2024-05-09T06:21:15.070Z,1024.76
2024-05-09T06:21:52.037Z,1024.73
2024-05-09T06:22:29.081Z,1024.67
2024-05-09T06:23:06.653Z,1024.7
2024-05-09T06:23:43.272Z,1024.77
2024-05-09T06:24:20.255Z,1024.74
2024-05-09T06:24:57.311Z,1024.74
2024-05-09T06:25:34.385Z,1024.72
2024-05-09T06:26:11.554Z,1024.73
2024-05-09T06:26:48.499Z,1024.69
2024-05-09T06:27:25.584Z,1024.71
2024-05-09T06:28:02.612Z,1024.68
2024-05-09T06:28:39.672Z,1024.68
2024-05-09T06:29:49.687Z,1024.71
2024-05-09T06:30:35.202Z,1024.7
2024-05-09T06:31:03.804Z,1024.68
2024-05-09T06:31:40.899Z,1024.66
2024-05-09T06:32:18.032Z,1024.65
2024-05-09T06:32:55.177Z,1024.67
2024-05-09T06:33:32.263Z,1024.68
2024-05-09T06:34:09.318Z,1024.69
2024-05-09T06:34:46.299Z,1024.62
2024-05-09T06:35:23.192Z,1024.67
2024-05-09T06:36:00.336Z,1024.64
2024-05-09T06:36:37.418Z,1024.68
2024-05-09T06:37:14.400Z,1024.66
2024-05-09T06:37:51.531Z,1024.66
2024-05-09T06:38:28.587Z,1024.64
2024-05-09T06:39:05.611Z,1024.62
2024-05-09T06:39:43.220Z,1024.62
2024-05-09T06:40:25.686Z,1024.62
2024-05-09T06:40:56.811Z,1024.61
2024-05-09T06:41:33.994Z,1024.61
2024-05-09T06:42:10.878Z,1024.62
2024-05-09T06:42:47.978Z,1024.62
2024-05-09T06:43:25.068Z,1024.57
2024-05-09T06:44:02.124Z,1024.58
2024-05-09T06:44:39.168Z,1024.57
2024-05-09T06:45:16.228Z,1024.6
2024-05-09T06:45:53.266Z,1024.56
2024-05-09T06:46:30.331Z,1024.6
2024-05-09T06:47:07.724Z,1024.57
2024-05-09T06:47:44.548Z,1024.57
2024-05-09T06:48:22.270Z,1024.58
2024-05-09T06:48:58.781Z,1024.55
2024-05-09T06:49:35.696Z,1024.56
2024-05-09T06:50:20.347Z,1024.57
2024-05-09T06:50:49.885Z,1024.51
2024-05-09T06:51:26.819Z,1024.57
2024-05-09T06:52:03.892Z,1024.55
2024-05-09T06:52:40.921Z,1024.59
2024-05-09T06:53:18.115Z,1024.56
2024-05-09T06:53:55.080Z,1024.54
2024-05-09T06:54:32.112Z,1024.56
2024-05-09T06:55:09.179Z,1024.56
2024-05-09T06:55:46.307Z,1024.59
2024-05-09T06:56:23.342Z,1024.57
2024-05-09T06:57:00.377Z,1024.54
2024-05-09T06:57:39.174Z,1024.55
2024-05-09T06:58:14.480Z,1024.53
2024-05-09T06:58:51.586Z,1024.54
2024-05-09T06:59:28.934Z,1024.54
2024-05-09T07:00:42.761Z,1024.56
2024-05-09T07:01:19.824Z,1024.55
2024-05-09T07:01:56.846Z,1024.53
2024-05-09T07:02:34.091Z,1024.5
2024-05-09T07:03:12.282Z,1024.5
2024-05-09T07:03:48.074Z,1024.52
2024-05-09T07:04:25.185Z,1024.54
2024-05-09T07:05:02.350Z,1024.52
2024-05-09T07:05:39.258Z,1024.55
2024-05-09T07:06:16.225Z,1024.58
2024-05-09T07:06:53.390Z,1024.53
2024-05-09T07:07:30.371Z,1024.54
2024-05-09T07:08:07.624Z,1024.56
2024-05-09T07:08:44.541Z,1024.57
2024-05-09T07:09:21.568Z,1024.56
2024-05-09T07:09:58.649Z,1024.57
2024-05-09T07:10:36.574Z,1024.58
2024-05-09T07:11:12.858Z,1024.57
2024-05-09T07:11:49.958Z,1024.53
2024-05-09T07:12:26.947Z,1024.54
2024-05-09T07:13:03.964Z,1024.53
2024-05-09T07:13:41.041Z,1024.5
2024-05-09T07:14:18.184Z,1024.51
2024-05-09T07:14:55.108Z,1024.53
2024-05-09T07:15:32.165Z,1024.53
2024-05-09T07:16:09.255Z,1024.54
2024-05-09T07:16:46.503Z,1024.49
2024-05-09T07:17:23.733Z,1024.51
2024-05-09T07:18:00.604Z,1024.49
2024-05-09T07:18:37.711Z,1024.48
2024-05-09T07:19:14.945Z,1024.53
2024-05-09T07:19:51.686Z,1024.47
2024-05-09T07:20:34.418Z,1024.49
2024-05-09T07:21:05.768Z,1024.52
2024-05-09T07:21:42.684Z,1024.51
2024-05-09T07:22:19.851Z,1024.51
2024-05-09T07:22:56.952Z,1024.52
2024-05-09T07:23:34.230Z,1024.55
2024-05-09T07:24:11.047Z,1024.55
2024-05-09T07:24:48.089Z,1024.52
2024-05-09T07:25:25.119Z,1024.51
2024-05-09T07:26:02.240Z,1024.49
2024-05-09T07:26:39.391Z,1024.44
2024-05-09T07:27:16.310Z,1024.51
2024-05-09T07:27:53.404Z,1024.53
2024-05-09T07:28:30.441Z,1024.49
2024-05-09T07:29:07.559Z,1024.52
2024-05-09T07:29:44.684Z,1024.54
2024-05-09T07:30:27.406Z,1024.51
2024-05-09T07:30:58.729Z,1024.53
2024-05-09T07:31:35.744Z,1024.57
2024-05-09T07:32:12.964Z,1024.5
2024-05-09T07:32:50.009Z,1024.51
2024-05-09T07:33:27.209Z,1024.49
2024-05-09T07:34:04.104Z,1024.52
2024-05-09T07:34:41.062Z,1024.56
2024-05-09T07:35:18.156Z,1024.54
2024-05-09T07:35:55.205Z,1024.56
2024-05-09T07:36:32.242Z,1024.53